Map

Track Data

SID SEASON NUMBER BASIN SUBBASIN NAME ISO_TIME NATURE LAT LON WMO_WIND WMO_PRES WMO_AGENCY TRACK_TYPE DIST2LAND LANDFALL IFLAG USA_AGENCY USA_ATCF_ID USA_LAT USA_LON USA_RECORD USA_STATUS USA_WIND USA_PRES USA_SSHS USA_R34_NE USA_R34_SE USA_R34_SW USA_R34_NW USA_R50_NE USA_R50_SE USA_R50_SW USA_R50_NW USA_R64_NE USA_R64_SE USA_R64_SW USA_R64_NW USA_POCI USA_ROCI USA_RMW USA_EYE TOKYO_LAT TOKYO_LON TOKYO_GRADE TOKYO_WIND TOKYO_PRES TOKYO_R50_DIR TOKYO_R50_LONG TOKYO_R50_SHORT TOKYO_R30_DIR TOKYO_R30_LONG TOKYO_R30_SHORT TOKYO_LAND CMA_LAT CMA_LON CMA_CAT CMA_WIND CMA_PRES HKO_LAT HKO_LON HKO_CAT HKO_WIND HKO_PRES NEWDELHI_LAT NEWDELHI_LON NEWDELHI_GRADE NEWDELHI_WIND NEWDELHI_PRES NEWDELHI_CI NEWDELHI_DP NEWDELHI_POCI REUNION_LAT REUNION_LON REUNION_TYPE REUNION_WIND REUNION_PRES REUNION_TNUM REUNION_CI REUNION_RMW REUNION_R34_NE REUNION_R34_SE REUNION_R34_SW REUNION_R34_NW REUNION_R50_NE REUNION_R50_SE REUNION_R50_SW REUNION_R50_NW REUNION_R64_NE REUNION_R64_SE REUNION_R64_SW REUNION_R64_NW BOM_LAT BOM_LON BOM_TYPE BOM_WIND BOM_PRES BOM_TNUM BOM_CI BOM_RMW BOM_R34_NE BOM_R34_SE BOM_R34_SW BOM_R34_NW BOM_R50_NE BOM_R50_SE BOM_R50_SW BOM_R50_NW BOM_R64_NE BOM_R64_SE BOM_R64_SW BOM_R64_NW BOM_ROCI BOM_POCI BOM_EYE BOM_POS_METHOD BOM_PRES_METHOD NADI_LAT NADI_LON NADI_CAT NADI_WIND NADI_PRES WELLINGTON_LAT WELLINGTON_LON WELLINGTON_WIND WELLINGTON_PRES DS824_LAT DS824_LON DS824_STAGE DS824_WIND DS824_PRES TD9636_LAT TD9636_LON TD9636_STAGE TD9636_WIND TD9636_PRES TD9635_LAT TD9635_LON TD9635_WIND TD9635_PRES TD9635_ROCI NEUMANN_LAT NEUMANN_LON NEUMANN_CLASS NEUMANN_WIND NEUMANN_PRES MLC_LAT MLC_LON MLC_CLASS MLC_WIND MLC_PRES USA_GUST BOM_GUST BOM_GUST_PER REUNION_GUST REUNION_GUST_PER USA_SEAHGT USA_SEARAD_NE USA_SEARAD_SE USA_SEARAD_SW USA_SEARAD_NW STORM_SPEED STORM_DIR
1884343N14124 1884 50 WP MM NOT_NAMED 1884-12-07 16:00:00 NR 14.1000 124.300 main 11 11 __________O___ -1 14.1000 124.300 7 1 269
1884343N14124 1884 50 WP MM NOT_NAMED 1884-12-07 18:00:00 NR 14.0995 124.251 main 11 11 __________P___ -1 14.0995 124.251 7 2 267
1884343N14124 1884 50 WP MM NOT_NAMED 1884-12-07 21:00:00 NR 14.0926 124.165 main 11 11 __________P___ -1 14.0926 124.165 7 2 262
1884343N14124 1884 50 WP MM NOT_NAMED 1884-12-08 00:00:00 NR 14.0702 124.046 main 15 10 __________P___ -1 14.0702 124.046 7 3 256
1884343N14124 1884 50 WP MM NOT_NAMED 1884-12-08 03:00:00 NR 14.0229 123.873 main 21 15 __________P___ -1 14.0229 123.873 7 4 253
1884343N14124 1884 50 WP MM NOT_NAMED 1884-12-08 04:00:00 NR 14.0000 123.800 main 15 0 __________O___ -1 14.0000 123.800 7 5 251
1884343N14124 1884 50 WP MM NOT_NAMED 1884-12-08 06:00:00 NR 13.9422 123.629 main 0 0 __________P___ -1 13.9422 123.629 7 6 250
1884343N14124 1884 50 WP MM NOT_NAMED 1884-12-08 09:00:00 NR 13.8303 123.322 main 0 0 __________P___ -1 13.8303 123.322 7 7 249
1884343N14124 1884 50 WP MM NOT_NAMED 1884-12-08 12:00:00 NR 13.6964 122.977 main 0 0 __________P___ -1 13.6964 122.977 7 7 248
1884343N14124 1884 50 WP MM NOT_NAMED 1884-12-08 15:00:00 NR 13.5500 122.618 main 0 0 __________P___ -1 13.5500 122.618 7 8 247
1884343N14124 1884 50 WP MM NOT_NAMED 1884-12-08 16:00:00 NR 13.5000 122.500 main 0 0 __________O___ -1 13.5000 122.500 7 7 246
1884343N14124 1884 50 WP MM NOT_NAMED 1884-12-08 18:00:00 NR 13.4056 122.283 main 15 15 __________P___ -1 13.4056 122.283 7 7 245
1884343N14124 1884 50 WP MM NOT_NAMED 1884-12-08 21:00:00 NR 13.2578 121.958 main 46 15 __________P___ -1 13.2578 121.958 7 7 245
1884343N14124 1884 50 WP MM NOT_NAMED 1884-12-09 00:00:00 NR 13.1053 121.633 main 15 0 __________P___ -1 13.1053 121.633 7 7 244
1884343N14124 1884 50 WP MM NOT_NAMED 1884-12-09 03:00:00 NR 12.9512 121.308 main 0 0 __________P___ -1 12.9512 121.308 7 7 244
1884343N14124 1884 50 WP MM NOT_NAMED 1884-12-09 04:00:00 NR 12.9000 121.200 main 0 0 __________O___ -1 12.9000 121.200 7 7 246
1884343N14124 1884 50 WP MM NOT_NAMED 1884-12-09 06:00:00 NR 12.8130 120.984 main 0 0 __________P___ -1 12.8130 120.984 7 7 248
1884343N14124 1884 50 WP MM NOT_NAMED 1884-12-09 09:00:00 NR 12.6829 120.659 main 10 21 __________P___ -1 12.6829 120.659 7 7 247
1884343N14124 1884 50 WP MM NOT_NAMED 1884-12-09 12:00:00 NR 12.5394 120.334 main 58 58 __________P___ -1 12.5394 120.334 7 7 244
1884343N14124 1884 50 WP MM NOT_NAMED 1884-12-09 15:00:00 NR 12.3667 120.008 main 93 93 __________P___ -1 12.3667 120.008 7 7 241
1884343N14124 1884 50 WP MM NOT_NAMED 1884-12-09 16:00:00 NR 12.3000 119.900 main 107 101 __________O___ -1 12.3000 119.900 7 8 236
1884343N14124 1884 50 WP MM NOT_NAMED 1884-12-09 18:00:00 NR 12.1504 119.683 main 101 68 __________P___ -1 12.1504 119.683 7 8 233
1884343N14124 1884 50 WP MM NOT_NAMED 1884-12-09 21:00:00 NR 11.8946 119.358 main 68 55 __________P___ -1 11.8946 119.358 7 8 230
1884343N14124 1884 50 WP MM NOT_NAMED 1884-12-10 00:00:00 NR 11.6095 119.033 main 62 55 __________P___ -1 11.6095 119.033 7 9 227
1884343N14124 1884 50 WP MM NOT_NAMED 1884-12-10 03:00:00 NR 11.3045 118.708 main 77 77 __________P___ -1 11.3045 118.708 7 9 226
1884343N14124 1884 50 WP MM NOT_NAMED 1884-12-10 04:00:00 NR 11.2000 118.600 main 83 83 __________O___ -1 11.2000 118.600 7 9 226
1884343N14124 1884 50 WP MM NOT_NAMED 1884-12-10 06:00:00 NR 10.9999 118.389 main 98 98 __________P___ -1 10.9999 118.389 7 9 225
1884343N14124 1884 50 WP MM NOT_NAMED 1884-12-10 09:00:00 NR 10.6873 118.072 main 101 101 __________P___ -1 10.6873 118.072 7 9 224
1884343N14124 1884 50 WP MM NOT_NAMED 1884-12-10 12:00:00 NR 10.3598 117.749 main 117 99 __________P___ -1 10.3598 117.749 7 9 224
1884343N14124 1884 50 WP MM NOT_NAMED 1884-12-10 15:00:00 NR 10.0174 117.415 main 99 95 __________P___ -1 10.0174 117.415 7 10 224
1884343N14124 1884 50 WP MM NOT_NAMED 1884-12-10 16:00:00 NR 9.90000 117.300 main 95 94 __________O___ -1 9.90000 117.300 7 10 224
1884343N14124 1884 50 WP MM NOT_NAMED 1884-12-10 18:00:00 NR 9.66036 117.063 main 94 94 __________P___ -1 9.66036 117.063 7 10 224
1884343N14124 1884 50 WP MM NOT_NAMED 1884-12-10 21:00:00 NR 9.29077 116.695 main 98 94 __________P___ -1 9.29077 116.695 7 11 225
1884343N14124 1884 50 WP MM NOT_NAMED 1884-12-11 00:00:00 NR 8.91225 116.315 main 115 112 __________P___ -1 8.91225 116.315 7 11 225
1884343N14124 1884 50 WP MM NOT_NAMED 1884-12-11 03:00:00 NR 8.52846 115.929 main 144 144 __________P___ -1 8.52846 115.929 7 11 225
1884343N14124 1884 50 WP MM NOT_NAMED 1884-12-11 04:00:00 NR 8.40000 115.800 main 154 __________O___ -1 8.40000 115.800 7 11 225

Digital Typhoon Data and Search

About IBTrACS Database

This database is a web-friendly format of International Best Track Archive for Climate Stewardship (IBTrACS), a global best track data archive curated by NOAA dating back to 1842.

Updated: 2021-10-21